Terminal Aerodrome Forecast
Issued by NWS

Home | Current Version | Previous Version | Text Only | Print | Product List | Glossary On
Versions: 1 2 3 4 5 6 7 8 9 10 11 12 13 14 15 16
000
FTUS41 KBTV 182300
TAFMPV
TAF
KMPV 182330Z 1900/1924 18010KT P6SM SCT150
     FM190300 19005KT P6SM OVC080
     FM190700 VRB03KT P6SM -SHRA OVC025
     FM191400 32014G24KT P6SM BKN040=

USA.gov is the U.S. government's official web portal to all federal, state and local government web resources and services.